Time,TemperatureF,DewpointF,PressureIn,WindDirection,WindDirectionDegrees,WindSpeedMPH,WindSpeedGustMPH,Humidity,HourlyPrecipIn,Conditions,Clouds,dailyrainin,SoftwareType,DateUTC
2013-04-03 00:02:00,28.0,20.0,-100.00,ESE,120,6.0,7.0,71,-99.99,,,-99.99,,2013-04-03 05:02:00,
2013-04-03 00:32:00,28.0,20.0,-100.00,ESE,120,6.0,7.0,71,-99.99,,,-99.99,,2013-04-03 05:32:00,
2013-04-03 00:42:00,28.0,20.0,-100.00,ESE,120,6.0,7.0,71,-99.99,,,-99.99,,2013-04-03 05:42:00,
2013-04-03 00:52:00,28.0,20.0,-100.00,ESE,120,6.0,7.0,71,-99.99,,,-99.99,,2013-04-03 05:52:00,
2013-04-03 01:02:00,28.0,22.0,-100.00,SE,130,9.0,12.0,79,-99.99,,,-99.99,,2013-04-03 06:02:00,
2013-04-03 01:32:00,28.0,22.0,-100.00,SE,130,9.0,12.0,79,-99.99,,,-99.99,,2013-04-03 06:32:00,
2013-04-03 01:42:00,28.0,22.0,-100.00,SE,130,9.0,12.0,79,-99.99,,,-99.99,,2013-04-03 06:42:00,
2013-04-03 01:52:00,28.0,22.0,-100.00,SE,130,9.0,12.0,79,-99.99,,,-99.99,,2013-04-03 06:52:00,
2013-04-03 02:02:00,28.0,24.0,-100.00,SE,140,7.0,9.0,86,-99.99,,,-99.99,,2013-04-03 07:02:00,
2013-04-03 02:33:00,28.0,24.0,-100.00,SE,140,7.0,9.0,86,-99.99,,,-99.99,,2013-04-03 07:33:00,
2013-04-03 02:42:00,28.0,24.0,-100.00,SE,140,7.0,9.0,86,-99.99,,,-99.99,,2013-04-03 07:42:00,
2013-04-03 02:53:00,28.0,24.0,-100.00,SE,140,7.0,9.0,86,-99.99,,,-99.99,,2013-04-03 07:53:00,
2013-04-03 03:02:00,27.0,24.0,-100.00,SE,145,2.0,4.0,86,-99.99,,,-99.99,,2013-04-03 08:02:00,
2013-04-03 03:33:00,27.0,24.0,-100.00,SE,145,2.0,4.0,86,-99.99,,,-99.99,,2013-04-03 08:33:00,
2013-04-03 03:43:00,27.0,24.0,-100.00,SE,145,2.0,4.0,86,-99.99,,,-99.99,,2013-04-03 08:43:00,
2013-04-03 03:52:00,27.0,24.0,-100.00,SE,145,2.0,4.0,86,-99.99,,,-99.99,,2013-04-03 08:52:00,
2013-04-03 04:02:00,28.0,25.0,-100.00,ESE,110,6.0,8.0,90,-99.99,,,-99.99,,2013-04-03 09:02:00,
2013-04-03 04:33:00,28.0,25.0,-100.00,ESE,110,6.0,8.0,90,-99.99,,,-99.99,,2013-04-03 09:33:00,
2013-04-03 04:43:00,28.0,25.0,-100.00,ESE,110,6.0,8.0,90,-99.99,,,-99.99,,2013-04-03 09:43:00,
2013-04-03 04:53:00,28.0,25.0,-100.00,ESE,110,6.0,8.0,90,-99.99,,,-99.99,,2013-04-03 09:53:00,
2013-04-03 05:02:00,30.0,27.0,-100.00,South,170,12.0,19.0,88,-99.99,,,-99.99,,2013-04-03 10:02:00,
2013-04-03 05:33:00,30.0,27.0,-100.00,South,170,12.0,19.0,88,-99.99,,,-99.99,,2013-04-03 10:33:00,
2013-04-03 05:43:00,30.0,27.0,-100.00,South,170,12.0,19.0,88,-99.99,,,-99.99,,2013-04-03 10:43:00,
2013-04-03 05:53:00,30.0,27.0,-100.00,South,170,12.0,19.0,88,-99.99,,,-99.99,,2013-04-03 10:53:00,
2013-04-03 06:02:00,30.0,27.0,-100.00,SSE,160,6.0,9.0,89,-99.99,,,-99.99,,2013-04-03 11:02:00,
2013-04-03 06:33:00,30.0,27.0,-100.00,SSE,160,6.0,9.0,89,-99.99,,,-99.99,,2013-04-03 11:33:00,
2013-04-03 06:42:00,30.0,27.0,-100.00,SSE,160,6.0,9.0,89,-99.99,,,-99.99,,2013-04-03 11:42:00,
2013-04-03 06:53:00,30.0,27.0,-100.00,SSE,160,6.0,9.0,89,-99.99,,,-99.99,,2013-04-03 11:53:00,
2013-04-03 07:02:00,30.0,27.0,-100.00,SSE,150,9.0,12.0,89,-99.99,,,-99.99,,2013-04-03 12:02:00,
2013-04-03 07:33:00,30.0,27.0,-100.00,SSE,150,9.0,12.0,89,-99.99,,,-99.99,,2013-04-03 12:33:00,
2013-04-03 07:42:00,30.0,27.0,-100.00,SSE,150,9.0,12.0,89,-99.99,,,-99.99,,2013-04-03 12:42:00,
2013-04-03 07:52:00,30.0,27.0,-100.00,SSE,150,9.0,12.0,89,-99.99,,,-99.99,,2013-04-03 12:52:00,
2013-04-03 08:02:00,31.0,29.0,-100.00,SE,140,5.0,8.0,91,-99.99,,,-99.99,,2013-04-03 13:02:00,
2013-04-03 08:32:00,31.0,29.0,-100.00,SE,140,5.0,8.0,91,-99.99,,,-99.99,,2013-04-03 13:32:00,
2013-04-03 08:42:00,31.0,29.0,-100.00,SE,140,5.0,8.0,91,-99.99,,,-99.99,,2013-04-03 13:42:00,
2013-04-03 08:52:00,31.0,29.0,-100.00,SE,140,5.0,8.0,91,-99.99,,,-99.99,,2013-04-03 13:52:00,
2013-04-03 09:02:00,35.0,28.0,-100.00,South,170,10.0,16.0,75,-99.99,,,-99.99,,2013-04-03 14:02:00,
2013-04-03 09:32:00,35.0,28.0,-100.00,South,170,10.0,16.0,75,-99.99,,,-99.99,,2013-04-03 14:32:00,
2013-04-03 09:43:00,35.0,28.0,-100.00,South,170,10.0,16.0,75,-99.99,,,-99.99,,2013-04-03 14:43:00,
2013-04-03 09:52:00,35.0,28.0,-100.00,South,170,10.0,16.0,75,-99.99,,,-99.99,,2013-04-03 14:52:00,
2013-04-03 10:02:00,38.0,29.0,-100.00,South,190,9.0,14.0,69,-99.99,,,-99.99,,2013-04-03 15:02:00,
2013-04-03 10:33:00,38.0,29.0,-100.00,South,190,9.0,14.0,69,-99.99,,,-99.99,,2013-04-03 15:33:00,
2013-04-03 10:43:00,38.0,29.0,-100.00,South,190,9.0,14.0,69,-99.99,,,-99.99,,2013-04-03 15:43:00,
2013-04-03 10:53:00,38.0,29.0,-100.00,South,190,9.0,14.0,69,-99.99,,,-99.99,,2013-04-03 15:53:00,
2013-04-03 11:02:00,44.0,32.0,-100.00,SSW,205,9.0,17.0,62,-99.99,,,-99.99,,2013-04-03 16:02:00,
2013-04-03 11:33:00,44.0,32.0,-100.00,SSW,205,9.0,17.0,62,-99.99,,,-99.99,,2013-04-03 16:33:00,
2013-04-03 11:44:00,44.0,32.0,-100.00,SSW,205,9.0,17.0,62,-99.99,,,-99.99,,2013-04-03 16:44:00,
2013-04-03 11:53:00,44.0,32.0,-100.00,SSW,205,9.0,17.0,62,-99.99,,,-99.99,,2013-04-03 16:53:00,
2013-04-03 12:02:00,49.0,32.0,-100.00,SW,235,8.0,13.0,52,-99.99,,,-99.99,,2013-04-03 17:02:00,
2013-04-03 12:35:00,49.0,32.0,-100.00,SW,235,8.0,13.0,52,-99.99,,,-99.99,,2013-04-03 17:35:00,
2013-04-03 12:47:00,49.0,32.0,-100.00,SW,235,8.0,13.0,52,-99.99,,,-99.99,,2013-04-03 17:47:00,
2013-04-03 12:54:00,49.0,32.0,-100.00,SW,235,8.0,13.0,52,-99.99,,,-99.99,,2013-04-03 17:54:00,
2013-04-03 13:02:00,56.0,32.0,-100.00,SW,235,14.0,16.0,41,-99.99,,,-99.99,,2013-04-03 18:02:00,
2013-04-03 13:34:00,56.0,32.0,-100.00,SW,235,14.0,16.0,41,-99.99,,,-99.99,,2013-04-03 18:34:00,
2013-04-03 13:43:00,56.0,32.0,-100.00,SW,235,14.0,16.0,41,-99.99,,,-99.99,,2013-04-03 18:43:00,
2013-04-03 13:52:00,56.0,32.0,-100.00,SW,235,14.0,16.0,41,-99.99,,,-99.99,,2013-04-03 18:52:00,
2013-04-03 14:02:00,59.0,32.0,-100.00,WSW,255,11.0,16.0,36,-99.99,,,-99.99,,2013-04-03 19:02:00,
2013-04-03 14:32:00,59.0,32.0,-100.00,WSW,255,11.0,16.0,36,-99.99,,,-99.99,,2013-04-03 19:32:00,
2013-04-03 14:42:00,59.0,32.0,-100.00,WSW,255,11.0,16.0,36,-99.99,,,-99.99,,2013-04-03 19:42:00,
2013-04-03 14:52:00,59.0,32.0,-100.00,WSW,255,11.0,16.0,36,-99.99,,,-99.99,,2013-04-03 19:52:00,
2013-04-03 15:02:00,63.0,34.0,-100.00,West,265,9.0,12.0,34,-99.99,,,-99.99,,2013-04-03 20:02:00,
2013-04-03 15:33:00,63.0,34.0,-100.00,West,265,9.0,12.0,34,-99.99,,,-99.99,,2013-04-03 20:33:00,
2013-04-03 15:42:00,63.0,34.0,-100.00,West,265,9.0,12.0,34,-99.99,,,-99.99,,2013-04-03 20:42:00,
2013-04-03 15:53:00,63.0,34.0,-100.00,West,265,9.0,12.0,34,-99.99,,,-99.99,,2013-04-03 20:53:00,
2013-04-03 16:02:00,65.0,34.0,-100.00,NNW,340,12.0,15.0,32,-99.99,,,-99.99,,2013-04-03 21:02:00,
2013-04-03 16:33:00,65.0,34.0,-100.00,NNW,340,12.0,15.0,32,-99.99,,,-99.99,,2013-04-03 21:33:00,
2013-04-03 16:42:00,65.0,34.0,-100.00,NNW,340,12.0,15.0,32,-99.99,,,-99.99,,2013-04-03 21:42:00,
2013-04-03 16:52:00,65.0,34.0,-100.00,NNW,340,12.0,15.0,32,-99.99,,,-99.99,,2013-04-03 21:52:00,
2013-04-03 17:02:00,57.0,33.0,-100.00,NW,325,12.0,22.0,40,-99.99,,,-99.99,,2013-04-03 22:02:00,
2013-04-03 17:33:00,57.0,33.0,-100.00,NW,325,12.0,22.0,40,-99.99,,,-99.99,,2013-04-03 22:33:00,
2013-04-03 17:42:00,57.0,33.0,-100.00,NW,325,12.0,22.0,40,-99.99,,,-99.99,,2013-04-03 22:42:00,
2013-04-03 17:52:00,57.0,33.0,-100.00,NW,325,12.0,22.0,40,-99.99,,,-99.99,,2013-04-03 22:52:00,
2013-04-03 18:02:00,48.0,34.0,-100.00,North,0,9.0,16.0,58,-99.99,,,-99.99,,2013-04-03 23:02:00,
2013-04-03 18:33:00,48.0,34.0,-100.00,North,0,9.0,16.0,58,-99.99,,,-99.99,,2013-04-03 23:33:00,
2013-04-03 18:43:00,48.0,34.0,-100.00,North,0,9.0,16.0,58,-99.99,,,-99.99,,2013-04-03 23:43:00,
2013-04-03 18:54:00,48.0,34.0,-100.00,North,0,9.0,16.0,58,-99.99,,,-99.99,,2013-04-03 23:54:00,
2013-04-03 19:02:00,48.0,33.0,-100.00,North,0,11.0,20.0,57,-99.99,,,-99.99,,2013-04-04 00:02:00,
2013-04-03 19:32:00,48.0,33.0,-100.00,North,0,11.0,20.0,57,-99.99,,,-99.99,,2013-04-04 00:32:00,
2013-04-03 19:43:00,48.0,33.0,-100.00,North,0,11.0,20.0,57,-99.99,,,-99.99,,2013-04-04 00:43:00,
2013-04-03 19:52:00,48.0,33.0,-100.00,North,0,11.0,20.0,57,-99.99,,,-99.99,,2013-04-04 00:52:00,
2013-04-03 20:02:00,44.0,33.0,-100.00,North,0,6.0,9.0,65,-99.99,,,-99.99,,2013-04-04 01:02:00,
2013-04-03 20:32:00,44.0,33.0,-100.00,North,0,6.0,9.0,65,-99.99,,,-99.99,,2013-04-04 01:32:00,
2013-04-03 20:43:00,44.0,33.0,-100.00,North,0,6.0,9.0,65,-99.99,,,-99.99,,2013-04-04 01:43:00,
2013-04-03 20:52:00,44.0,33.0,-100.00,North,0,6.0,9.0,65,-99.99,,,-99.99,,2013-04-04 01:52:00,
2013-04-03 21:02:00,41.0,30.0,-100.00,North,0,12.0,18.0,65,-99.99,,,-99.99,,2013-04-04 02:02:00,
2013-04-03 21:32:00,41.0,30.0,-100.00,North,0,12.0,18.0,65,-99.99,,,-99.99,,2013-04-04 02:32:00,
2013-04-03 21:42:00,41.0,30.0,-100.00,North,0,12.0,18.0,65,-99.99,,,-99.99,,2013-04-04 02:42:00,
2013-04-03 21:53:00,41.0,30.0,-100.00,North,0,12.0,18.0,65,-99.99,,,-99.99,,2013-04-04 02:53:00,
2013-04-03 22:02:00,38.0,27.0,-100.00,NNW,340,7.0,9.0,67,-99.99,,,-99.99,,2013-04-04 03:02:00,
2013-04-03 22:34:00,38.0,27.0,-100.00,NNW,340,7.0,9.0,67,-99.99,,,-99.99,,2013-04-04 03:34:00,
2013-04-03 22:45:00,38.0,27.0,-100.00,NNW,340,7.0,9.0,67,-99.99,,,-99.99,,2013-04-04 03:45:00,
2013-04-03 22:53:00,38.0,27.0,-100.00,NNW,340,7.0,9.0,67,-99.99,,,-99.99,,2013-04-04 03:53:00,
2013-04-03 23:02:00,36.0,28.0,-100.00,NNW,340,6.0,9.0,73,-99.99,,,-99.99,,2013-04-04 04:02:00,
2013-04-03 23:34:00,36.0,28.0,-100.00,NNW,340,6.0,9.0,73,-99.99,,,-99.99,,2013-04-04 04:34:00,
2013-04-03 23:43:00,36.0,28.0,-100.00,NNW,340,6.0,9.0,73,-99.99,,,-99.99,,2013-04-04 04:43:00,
2013-04-03 23:53:00,36.0,28.0,-100.00,NNW,340,6.0,9.0,73,-99.99,,,-99.99,,2013-04-04 04:53:00,